createdAt,value
2022-12-06T00:01:04.768Z,1.60
2022-12-06T00:03:31.668Z,1.60
2022-12-06T00:06:06.003Z,1.60
2022-12-06T00:08:32.848Z,1.60
2022-12-06T00:11:04.229Z,1.60
2022-12-06T00:13:31.029Z,1.60
2022-12-06T00:16:00.443Z,1.60
2022-12-06T00:18:27.259Z,1.60
2022-12-06T00:20:54.138Z,1.60
2022-12-06T00:23:20.911Z,1.60
2022-12-06T00:25:47.702Z,1.60
2022-12-06T00:28:14.493Z,1.60
2022-12-06T00:30:41.257Z,1.60
2022-12-06T00:33:08.032Z,1.60
2022-12-06T00:35:34.798Z,1.60
2022-12-06T00:38:01.606Z,1.60
2022-12-06T00:40:28.402Z,1.60
2022-12-06T00:42:55.192Z,1.60
2022-12-06T00:45:21.990Z,1.60
2022-12-06T00:47:48.777Z,1.60
2022-12-06T00:50:15.732Z,1.60
2022-12-06T00:52:42.475Z,1.60
2022-12-06T00:55:09.366Z,1.60
2022-12-06T00:57:36.253Z,1.60
2022-12-06T01:00:03.430Z,1.60
2022-12-06T01:02:30.586Z,1.60
2022-12-06T01:04:57.369Z,1.50
2022-12-06T01:07:24.196Z,1.50
2022-12-06T01:09:50.984Z,1.50
2022-12-06T01:12:17.781Z,1.50
2022-12-06T01:14:44.488Z,1.60
2022-12-06T01:17:11.265Z,1.50
2022-12-06T01:19:38.077Z,1.50
2022-12-06T01:22:04.822Z,1.60
2022-12-06T01:24:31.550Z,1.60
2022-12-06T01:26:58.334Z,1.60
2022-12-06T01:29:25.068Z,1.60
2022-12-06T01:31:51.821Z,1.60
2022-12-06T01:34:18.620Z,1.50
2022-12-06T01:36:45.459Z,1.60
2022-12-06T01:39:12.753Z,1.60
2022-12-06T01:41:39.682Z,1.50
2022-12-06T01:44:06.786Z,1.50
2022-12-06T01:46:42.021Z,1.50
2022-12-06T01:49:14.445Z,1.60
2022-12-06T01:51:46.031Z,1.60
2022-12-06T01:54:13.721Z,1.60
2022-12-06T01:56:40.996Z,1.60
2022-12-06T01:59:08.132Z,1.50
2022-12-06T02:01:35.658Z,1.60
2022-12-06T02:04:02.686Z,1.50
2022-12-06T02:06:29.887Z,1.50
2022-12-06T02:08:58.537Z,1.50
2022-12-06T02:11:25.297Z,1.50
2022-12-06T02:13:52.267Z,1.50
2022-12-06T02:16:24.912Z,1.60
2022-12-06T02:19:05.902Z,1.60
2022-12-06T02:21:32.679Z,1.50
2022-12-06T02:24:02.276Z,1.60
2022-12-06T02:26:35.805Z,1.50
2022-12-06T02:29:14.474Z,1.50
2022-12-06T02:31:59.092Z,1.50
2022-12-06T02:34:25.935Z,1.50
2022-12-06T02:37:00.485Z,1.40
2022-12-06T02:39:27.293Z,1.40
2022-12-06T02:41:54.005Z,1.40
2022-12-06T02:44:23.935Z,1.40
2022-12-06T02:46:51.439Z,1.40
2022-12-06T02:49:18.380Z,1.50
2022-12-06T02:51:46.233Z,1.40
2022-12-06T02:54:13.617Z,1.50
2022-12-06T02:56:40.360Z,1.40
2022-12-06T02:59:07.170Z,1.40
2022-12-06T03:01:36.372Z,1.40
2022-12-06T03:04:05.880Z,1.40
2022-12-06T03:06:49.565Z,1.40
2022-12-06T03:09:16.347Z,1.40
2022-12-06T03:11:48.372Z,1.50
2022-12-06T03:14:17.929Z,1.40
2022-12-06T03:16:49.965Z,1.50
2022-12-06T03:19:20.795Z,1.50
2022-12-06T03:22:06.262Z,1.50
2022-12-06T03:24:34.001Z,1.40
2022-12-06T03:27:03.927Z,1.50
2022-12-06T03:29:31.564Z,1.40
2022-12-06T03:32:01.393Z,1.50
2022-12-06T03:34:32.662Z,1.40
2022-12-06T03:36:59.806Z,1.50
2022-12-06T03:39:34.862Z,1.50
2022-12-06T03:42:03.128Z,1.50
2022-12-06T03:44:29.972Z,1.50
2022-12-06T03:47:01.933Z,1.50
2022-12-06T03:49:33.442Z,1.60
2022-12-06T03:52:00.232Z,1.60
2022-12-06T03:54:27.126Z,1.60
2022-12-06T03:56:53.917Z,1.60
2022-12-06T03:59:20.641Z,1.60
2022-12-06T04:01:47.507Z,1.60
2022-12-06T04:04:14.382Z,1.60
2022-12-06T04:06:41.173Z,1.60
2022-12-06T04:09:26.345Z,1.70
2022-12-06T04:11:53.093Z,1.60
2022-12-06T04:14:19.849Z,1.70
2022-12-06T04:17:05.210Z,1.70
2022-12-06T04:19:32.046Z,1.80
2022-12-06T04:22:17.433Z,1.70
2022-12-06T04:24:44.303Z,1.80
2022-12-06T04:27:29.494Z,1.80
2022-12-06T04:30:15.002Z,1.70
2022-12-06T04:33:00.538Z,1.80
2022-12-06T04:35:46.022Z,1.80
2022-12-06T04:38:31.400Z,1.80
2022-12-06T04:40:58.143Z,1.80
2022-12-06T04:43:42.932Z,1.80
2022-12-06T04:46:13.526Z,1.80
2022-12-06T04:48:40.659Z,1.80
2022-12-06T04:51:07.816Z,1.90
2022-12-06T04:53:34.630Z,1.90
2022-12-06T04:56:01.748Z,1.90
2022-12-06T04:58:28.543Z,2.00
2022-12-06T05:00:55.457Z,1.90
2022-12-06T05:03:22.367Z,1.90
2022-12-06T05:05:49.762Z,1.90
2022-12-06T05:08:16.608Z,1.90
2022-12-06T05:10:46.720Z,1.90
2022-12-06T05:13:13.866Z,2.00
2022-12-06T05:15:40.830Z,2.00
2022-12-06T05:18:07.524Z,1.90
2022-12-06T05:20:34.295Z,2.00
2022-12-06T05:23:01.055Z,2.00
2022-12-06T05:25:27.790Z,2.00
2022-12-06T05:27:54.567Z,2.00
2022-12-06T05:30:21.385Z,2.00
2022-12-06T05:32:51.353Z,2.00
2022-12-06T05:35:22.243Z,2.10
2022-12-06T05:37:48.971Z,2.00
2022-12-06T05:40:15.800Z,2.00
2022-12-06T05:42:42.651Z,2.00
2022-12-06T05:45:09.786Z,2.00
2022-12-06T05:47:36.619Z,2.00
2022-12-06T05:50:04.186Z,2.10
2022-12-06T05:52:30.960Z,2.00
2022-12-06T05:54:57.664Z,2.10
2022-12-06T05:57:24.408Z,2.20
2022-12-06T05:59:51.163Z,2.20
2022-12-06T06:02:18.103Z,2.20
2022-12-06T06:04:45.072Z,2.20
2022-12-06T06:07:11.858Z,2.20
2022-12-06T06:09:38.569Z,2.10
2022-12-06T06:12:10.915Z,2.20
2022-12-06T06:14:39.285Z,2.20
2022-12-06T06:17:06.094Z,2.20
2022-12-06T06:19:32.973Z,2.20
2022-12-06T06:21:59.665Z,2.20
2022-12-06T06:24:26.417Z,2.30
2022-12-06T06:26:53.144Z,2.20
2022-12-06T06:29:19.965Z,2.30
2022-12-06T06:31:46.746Z,2.30
2022-12-06T06:34:13.580Z,2.30
2022-12-06T06:36:45.494Z,2.30
2022-12-06T06:39:12.844Z,2.30
2022-12-06T06:41:39.732Z,2.30
2022-12-06T06:44:06.585Z,2.30
2022-12-06T06:46:33.393Z,2.40
2022-12-06T06:49:00.154Z,2.40
2022-12-06T06:51:26.879Z,2.40
2022-12-06T06:53:53.611Z,2.40
2022-12-06T06:56:20.397Z,2.40
2022-12-06T06:58:47.170Z,2.50
2022-12-06T07:01:18.518Z,2.40
2022-12-06T07:03:45.489Z,2.40
2022-12-06T07:06:12.229Z,2.50
2022-12-06T07:08:39.692Z,2.60
2022-12-06T07:11:06.482Z,2.60
2022-12-06T07:13:33.193Z,2.60
2022-12-06T07:16:02.607Z,2.60
2022-12-06T07:18:29.643Z,2.70
2022-12-06T07:21:00.889Z,2.70
2022-12-06T07:23:27.724Z,2.70
2022-12-06T07:26:20.805Z,2.70
2022-12-06T07:28:48.472Z,2.70
2022-12-06T07:31:15.275Z,2.70
2022-12-06T07:33:45.054Z,2.70
2022-12-06T07:36:13.666Z,2.70
2022-12-06T07:38:41.561Z,2.70
2022-12-06T07:41:28.618Z,2.70
2022-12-06T07:44:14.504Z,2.80
2022-12-06T07:46:41.556Z,2.70
2022-12-06T07:49:08.423Z,2.70
2022-12-06T07:51:35.435Z,2.80
2022-12-06T07:54:02.163Z,2.80
2022-12-06T07:56:29.515Z,2.80
2022-12-06T07:58:56.218Z,2.90
2022-12-06T08:01:23.531Z,2.80
2022-12-06T08:03:50.587Z,2.80
2022-12-06T08:06:17.417Z,2.90
2022-12-06T08:08:44.142Z,2.80
2022-12-06T08:11:11.146Z,2.90
2022-12-06T08:13:38.327Z,3.00
2022-12-06T08:16:09.307Z,2.90
2022-12-06T08:18:37.471Z,2.90
2022-12-06T08:21:04.458Z,2.90
2022-12-06T08:23:34.280Z,2.90
2022-12-06T08:26:02.830Z,2.90
2022-12-06T08:28:30.186Z,2.90
2022-12-06T08:31:02.664Z,3.00
2022-12-06T08:33:32.256Z,3.00
2022-12-06T08:35:59.053Z,3.00
2022-12-06T08:38:25.785Z,3.10
2022-12-06T08:40:52.534Z,3.10
2022-12-06T08:43:19.374Z,3.10
2022-12-06T08:45:50.149Z,3.20
2022-12-06T08:48:16.878Z,3.30
2022-12-06T08:50:43.750Z,3.30
2022-12-06T08:53:10.510Z,3.30
2022-12-06T08:55:37.277Z,3.30
2022-12-06T08:58:04.191Z,3.40
2022-12-06T09:00:31.052Z,3.40
2022-12-06T09:02:57.811Z,3.50
2022-12-06T09:05:24.629Z,3.60
2022-12-06T09:07:51.400Z,3.60
2022-12-06T09:10:18.237Z,3.60
2022-12-06T09:12:44.960Z,3.70
2022-12-06T09:15:11.798Z,3.70
2022-12-06T09:17:38.624Z,3.80
2022-12-06T09:20:06.541Z,3.80
2022-12-06T09:22:33.497Z,3.80
2022-12-06T09:25:00.228Z,3.80
2022-12-06T09:27:29.681Z,3.90
2022-12-06T09:29:56.442Z,3.90
2022-12-06T09:32:23.177Z,3.90
2022-12-06T09:34:49.938Z,3.90
2022-12-06T09:37:16.797Z,4.00
2022-12-06T09:39:46.170Z,4.00
2022-12-06T09:42:31.756Z,4.10
2022-12-06T09:44:58.470Z,4.10
2022-12-06T09:47:40.182Z,4.10
2022-12-06T09:50:15.844Z,4.10
2022-12-06T09:52:51.708Z,4.10
2022-12-06T09:55:26.056Z,4.10
2022-12-06T09:57:58.310Z,4.10
2022-12-06T10:00:25.952Z,4.10
2022-12-06T10:02:52.801Z,4.10
2022-12-06T10:05:24.791Z,4.10
2022-12-06T10:08:00.746Z,4.10
2022-12-06T10:10:43.343Z,4.10
2022-12-06T10:13:16.463Z,4.10
2022-12-06T10:16:02.072Z,4.10
2022-12-06T10:18:47.515Z,4.10
2022-12-06T10:21:32.872Z,4.10
2022-12-06T10:24:35.202Z,4.10
2022-12-06T10:27:12.724Z,4.20
2022-12-06T10:29:39.437Z,4.10
2022-12-06T10:32:06.268Z,4.20
2022-12-06T10:34:43.109Z,4.20
2022-12-06T10:37:32.694Z,4.20
2022-12-06T10:40:06.947Z,4.30
2022-12-06T10:42:36.633Z,4.20
2022-12-06T10:45:27.790Z,4.30
2022-12-06T10:47:56.704Z,4.30
2022-12-06T10:50:27.838Z,4.20
2022-12-06T10:53:06.456Z,4.40
2022-12-06T10:55:36.306Z,4.40
2022-12-06T10:58:06.653Z,4.40
2022-12-06T11:00:45.903Z,4.30
2022-12-06T11:03:12.740Z,4.40
2022-12-06T11:05:59.747Z,4.40
2022-12-06T11:08:46.840Z,4.40
2022-12-06T11:11:18.324Z,4.40
2022-12-06T11:13:54.185Z,4.40
2022-12-06T11:16:28.897Z,4.40
2022-12-06T11:18:57.014Z,4.40
2022-12-06T11:21:43.002Z,4.50
2022-12-06T11:24:21.118Z,4.50
2022-12-06T11:27:01.037Z,4.40
2022-12-06T11:29:27.908Z,4.50
2022-12-06T11:31:59.726Z,4.50
2022-12-06T11:34:38.468Z,4.50
2022-12-06T11:37:06.054Z,4.40
2022-12-06T11:39:33.727Z,4.60
2022-12-06T11:42:02.700Z,4.50
2022-12-06T11:44:36.289Z,4.50
2022-12-06T11:47:03.337Z,4.60
2022-12-06T11:49:40.206Z,4.50
2022-12-06T11:52:14.728Z,4.40
2022-12-06T11:54:44.403Z,4.50
2022-12-06T11:57:20.835Z,4.40
2022-12-06T12:00:08.159Z,4.40
2022-12-06T12:02:39.109Z,4.40
2022-12-06T12:05:17.825Z,4.30
2022-12-06T12:07:45.876Z,4.30
2022-12-06T12:10:31.114Z,4.30
2022-12-06T12:13:24.521Z,4.20
2022-12-06T12:15:53.089Z,4.20
2022-12-06T12:18:22.501Z,4.30
2022-12-06T12:20:49.623Z,4.30
2022-12-06T12:23:18.022Z,4.30
2022-12-06T12:25:58.034Z,4.30
2022-12-06T12:28:26.473Z,4.40
2022-12-06T12:30:56.964Z,4.40
2022-12-06T12:33:24.645Z,4.40
2022-12-06T12:35:56.191Z,4.40
2022-12-06T12:38:25.459Z,4.50
2022-12-06T12:40:54.443Z,4.50
2022-12-06T12:43:23.195Z,4.40
2022-12-06T12:46:04.442Z,4.40
2022-12-06T12:48:31.308Z,4.50
2022-12-06T12:50:59.457Z,4.60
2022-12-06T12:53:36.496Z,4.50
2022-12-06T12:56:32.961Z,4.40
2022-12-06T12:59:02.470Z,4.40
2022-12-06T13:01:52.864Z,4.40
2022-12-06T13:04:41.316Z,4.40
2022-12-06T13:07:15.024Z,4.40
2022-12-06T13:09:51.793Z,4.30
2022-12-06T13:12:37.017Z,4.30
2022-12-06T13:15:04.003Z,4.30
2022-12-06T13:17:32.502Z,4.30
2022-12-06T13:19:59.526Z,4.20
2022-12-06T13:22:27.818Z,4.20
2022-12-06T13:25:00.303Z,4.20
2022-12-06T13:27:28.524Z,4.20
2022-12-06T13:29:58.718Z,4.20
2022-12-06T13:32:31.489Z,4.30
2022-12-06T13:35:04.594Z,4.30
2022-12-06T13:37:43.497Z,4.30
2022-12-06T13:40:28.693Z,4.40
2022-12-06T13:42:55.592Z,4.40
2022-12-06T13:45:31.586Z,4.40
2022-12-06T13:47:58.531Z,4.40
2022-12-06T13:50:25.295Z,4.30
2022-12-06T13:52:52.086Z,4.30
2022-12-06T13:55:24.752Z,4.30
2022-12-06T13:57:51.510Z,4.20
2022-12-06T14:00:30.684Z,4.30
2022-12-06T14:02:58.599Z,4.20
2022-12-06T14:05:44.241Z,4.20
2022-12-06T14:08:12.300Z,4.20
2022-12-06T14:10:39.158Z,4.20
2022-12-06T14:13:05.980Z,4.20
2022-12-06T14:15:32.930Z,4.20
2022-12-06T14:18:05.487Z,4.20
2022-12-06T14:20:36.389Z,4.10
2022-12-06T14:23:03.304Z,4.20
2022-12-06T14:25:31.391Z,4.20
2022-12-06T14:28:04.077Z,4.20
2022-12-06T14:30:31.147Z,4.20
2022-12-06T14:32:58.629Z,4.20
2022-12-06T14:35:36.163Z,4.20
2022-12-06T14:38:22.123Z,4.20
2022-12-06T14:41:07.689Z,4.10
2022-12-06T14:43:35.269Z,4.10
2022-12-06T14:46:03.282Z,4.10
2022-12-06T14:48:51.204Z,4.00
2022-12-06T14:51:33.484Z,4.10
2022-12-06T14:54:16.415Z,4.10
2022-12-06T14:56:44.581Z,4.00
2022-12-06T14:59:11.826Z,4.00
2022-12-06T15:01:47.035Z,4.00
2022-12-06T15:04:23.983Z,4.00
2022-12-06T15:06:52.642Z,4.00
2022-12-06T15:09:21.864Z,4.00
2022-12-06T15:12:07.852Z,4.00
2022-12-06T15:14:35.122Z,4.00
2022-12-06T15:17:03.416Z,3.90
2022-12-06T15:19:31.216Z,4.00
2022-12-06T15:21:58.031Z,4.00
2022-12-06T15:24:25.758Z,4.00
2022-12-06T15:26:52.821Z,3.90
2022-12-06T15:29:19.672Z,3.90
2022-12-06T15:31:51.947Z,3.90
2022-12-06T15:34:18.753Z,3.80
2022-12-06T15:36:45.446Z,3.80
2022-12-06T15:39:12.413Z,3.80
2022-12-06T15:41:39.254Z,3.80
2022-12-06T15:44:06.054Z,3.80
2022-12-06T15:46:32.930Z,3.80
2022-12-06T15:48:59.762Z,3.90
2022-12-06T15:51:27.077Z,3.90
2022-12-06T15:53:55.222Z,3.90
2022-12-06T15:56:23.565Z,3.80
2022-12-06T15:58:50.783Z,3.80
2022-12-06T16:01:19.552Z,3.80
2022-12-06T16:03:47.308Z,3.80
2022-12-06T16:06:15.023Z,3.70
2022-12-06T16:08:41.926Z,3.70
2022-12-06T16:11:12.329Z,3.70
2022-12-06T16:13:39.875Z,3.70
2022-12-06T16:16:06.988Z,3.70
2022-12-06T16:18:33.785Z,3.70
2022-12-06T16:21:00.994Z,3.70
2022-12-06T16:24:12.554Z,3.70
2022-12-06T16:26:35.289Z,3.70
2022-12-06T16:29:03.331Z,3.70
2022-12-06T16:31:30.323Z,3.70
2022-12-06T16:33:57.268Z,3.70
2022-12-06T16:36:28.179Z,3.70
2022-12-06T16:38:55.461Z,3.60
2022-12-06T16:41:23.554Z,3.60
2022-12-06T16:43:50.477Z,3.50
2022-12-06T16:46:17.273Z,3.30
2022-12-06T16:48:44.100Z,3.30
2022-12-06T16:51:10.900Z,3.20
2022-12-06T16:53:37.621Z,3.20
2022-12-06T16:56:04.556Z,3.20
2022-12-06T16:58:31.316Z,3.20
2022-12-06T17:00:59.696Z,3.30
2022-12-06T17:03:26.495Z,3.40
2022-12-06T17:05:53.379Z,3.30
2022-12-06T17:08:22.101Z,3.30
2022-12-06T17:11:09.173Z,3.30
2022-12-06T17:13:35.954Z,3.30
2022-12-06T17:16:06.510Z,3.20
2022-12-06T17:18:33.385Z,3.30
2022-12-06T17:21:00.116Z,3.30
2022-12-06T17:23:26.839Z,3.20
2022-12-06T17:25:57.820Z,3.20
2022-12-06T17:28:24.554Z,3.10
2022-12-06T17:30:52.127Z,3.20
2022-12-06T17:33:18.912Z,3.20
2022-12-06T17:35:45.725Z,3.30
2022-12-06T17:38:12.453Z,3.30
2022-12-06T17:40:39.238Z,3.40
2022-12-06T17:43:05.985Z,3.40
2022-12-06T17:45:32.809Z,3.40
2022-12-06T17:47:59.630Z,3.40
2022-12-06T17:50:26.525Z,3.30
2022-12-06T17:52:53.319Z,3.40
2022-12-06T17:55:20.034Z,3.30
2022-12-06T17:57:46.816Z,3.30
2022-12-06T18:00:14.061Z,3.40
2022-12-06T18:02:41.064Z,3.30
2022-12-06T18:05:08.150Z,3.30
2022-12-06T18:07:35.264Z,3.40
2022-12-06T18:10:02.095Z,3.40
2022-12-06T18:12:32.128Z,3.40
2022-12-06T18:15:01.891Z,3.40
2022-12-06T18:17:28.778Z,3.40
2022-12-06T18:19:55.567Z,3.50
2022-12-06T18:22:22.385Z,3.40
2022-12-06T18:24:49.156Z,3.40
2022-12-06T18:27:15.984Z,3.40
2022-12-06T18:29:42.849Z,3.40
2022-12-06T18:32:09.850Z,3.40
2022-12-06T18:34:36.993Z,3.60
2022-12-06T18:37:03.852Z,3.50
2022-12-06T18:39:30.672Z,3.60
2022-12-06T18:41:57.480Z,3.60
2022-12-06T18:44:24.474Z,3.60
2022-12-06T18:46:51.467Z,3.70
2022-12-06T18:49:18.450Z,3.80
2022-12-06T18:51:45.181Z,3.80
2022-12-06T18:54:13.894Z,3.80
2022-12-06T18:56:41.293Z,3.80
2022-12-06T18:59:08.917Z,3.80
2022-12-06T19:01:37.607Z,3.90
2022-12-06T19:04:06.317Z,3.90
2022-12-06T19:06:34.529Z,3.90
2022-12-06T19:09:03.451Z,3.90
2022-12-06T19:11:30.234Z,3.90
2022-12-06T19:13:58.282Z,3.90
2022-12-06T19:16:28.438Z,3.90
2022-12-06T19:18:56.344Z,3.90
2022-12-06T19:21:23.632Z,3.90
2022-12-06T19:23:57.411Z,3.90
2022-12-06T19:26:24.975Z,3.90
2022-12-06T19:28:52.802Z,3.90
2022-12-06T19:31:20.730Z,3.90
2022-12-06T19:33:47.631Z,3.90
2022-12-06T19:36:19.107Z,3.80
2022-12-06T19:38:45.936Z,3.80
2022-12-06T19:41:13.925Z,3.80
2022-12-06T19:43:59.223Z,3.80
2022-12-06T19:46:27.466Z,3.80
2022-12-06T19:48:58.026Z,3.80
2022-12-06T19:51:26.829Z,3.80
2022-12-06T19:53:55.006Z,3.90
2022-12-06T19:56:22.412Z,3.90
2022-12-06T19:58:49.285Z,4.00
2022-12-06T20:01:25.028Z,4.00
2022-12-06T20:03:52.828Z,4.00
2022-12-06T20:06:21.026Z,4.00
2022-12-06T20:08:48.365Z,4.00
2022-12-06T20:11:34.851Z,4.00
2022-12-06T20:14:06.147Z,4.00
2022-12-06T20:16:33.218Z,4.00
2022-12-06T20:19:00.172Z,4.10
2022-12-06T20:21:26.958Z,4.10
2022-12-06T20:23:53.758Z,4.10
2022-12-06T20:26:20.628Z,4.10
2022-12-06T20:28:47.851Z,4.10
2022-12-06T20:31:19.503Z,4.00
2022-12-06T20:33:46.610Z,4.10
2022-12-06T20:36:14.977Z,4.10
2022-12-06T20:38:41.789Z,4.10
2022-12-06T20:41:12.465Z,4.10
2022-12-06T20:43:39.644Z,4.10
2022-12-06T20:46:14.522Z,4.10
2022-12-06T20:48:42.860Z,4.10
2022-12-06T20:51:11.535Z,4.00
2022-12-06T20:53:38.376Z,4.00
2022-12-06T20:56:05.936Z,4.00
2022-12-06T20:58:32.782Z,3.90
2022-12-06T21:01:00.147Z,3.90
2022-12-06T21:03:27.385Z,3.90
2022-12-06T21:06:00.201Z,3.90
2022-12-06T21:08:27.107Z,3.90
2022-12-06T21:11:21.724Z,3.90
2022-12-06T21:13:41.761Z,3.90
2022-12-06T21:16:08.747Z,3.90
2022-12-06T21:18:35.858Z,3.90
2022-12-06T21:21:03.233Z,3.90
2022-12-06T21:23:30.017Z,3.90
2022-12-06T21:25:56.885Z,3.90
2022-12-06T21:28:23.690Z,4.00
2022-12-06T21:30:54.079Z,3.90
2022-12-06T21:33:21.630Z,3.90
2022-12-06T21:35:48.966Z,3.90
2022-12-06T21:38:16.277Z,4.00
2022-12-06T21:40:45.732Z,3.90
2022-12-06T21:43:16.093Z,3.90
2022-12-06T21:45:42.793Z,3.90
2022-12-06T21:48:09.595Z,3.90
2022-12-06T21:50:36.858Z,3.80
2022-12-06T21:53:03.613Z,3.90
2022-12-06T21:55:30.336Z,3.90
2022-12-06T21:57:57.819Z,3.90
2022-12-06T22:00:24.673Z,3.90
2022-12-06T22:02:52.279Z,3.80
2022-12-06T22:05:19.125Z,3.80
2022-12-06T22:07:45.972Z,3.90
2022-12-06T22:10:12.833Z,3.90
2022-12-06T22:12:39.629Z,3.90
2022-12-06T22:15:06.669Z,3.80
2022-12-06T22:17:33.449Z,3.80
2022-12-06T22:20:00.454Z,3.80
2022-12-06T22:22:27.569Z,3.80
2022-12-06T22:24:54.416Z,3.80
2022-12-06T22:27:21.213Z,3.80
2022-12-06T22:29:48.164Z,3.80
2022-12-06T22:32:14.942Z,3.80
2022-12-06T22:34:41.753Z,3.80
2022-12-06T22:37:08.553Z,3.90
2022-12-06T22:39:35.297Z,3.90
2022-12-06T22:42:02.103Z,3.90
2022-12-06T22:44:28.829Z,3.90
2022-12-06T22:46:55.640Z,3.90
2022-12-06T22:49:22.521Z,4.00
2022-12-06T22:51:49.278Z,4.00
2022-12-06T22:54:16.107Z,4.00
2022-12-06T22:56:48.559Z,4.00
2022-12-06T22:59:16.821Z,4.20
2022-12-06T23:01:43.654Z,4.10
2022-12-06T23:04:11.181Z,4.20
2022-12-06T23:06:38.151Z,4.10
2022-12-06T23:09:05.827Z,4.10
2022-12-06T23:11:33.896Z,4.10
2022-12-06T23:14:02.028Z,4.20
2022-12-06T23:16:29.560Z,4.20
2022-12-06T23:18:56.528Z,4.10
2022-12-06T23:21:23.270Z,4.20
2022-12-06T23:23:54.602Z,4.20
2022-12-06T23:26:22.877Z,4.20
2022-12-06T23:28:49.699Z,4.20
2022-12-06T23:31:16.478Z,4.20
2022-12-06T23:33:43.661Z,4.20
2022-12-06T23:36:15.904Z,4.20
2022-12-06T23:38:42.993Z,4.20
2022-12-06T23:41:11.518Z,4.20
2022-12-06T23:43:38.736Z,4.20
2022-12-06T23:46:07.789Z,4.30
2022-12-06T23:48:35.329Z,4.20
2022-12-06T23:51:06.188Z,4.30
2022-12-06T23:53:33.478Z,4.30
2022-12-06T23:56:01.787Z,4.40
2022-12-06T23:58:28.877Z,4.40
